Time;durP1;ratioP1;P1;durP2;ratioP2;P2;SDS_P1;SDS_P2;PMS_P1;PMS_P2;Temp;Humidity;BMP_temperature;BMP_pressure;BME280_temperature;BME280_humidity;BME280_pressure;Samples;Min_cycle;Max_cycle;Signal;HPM_P1;HPM_P2
2023/10/05 00:01:12;;;;;;;1.10;1.00;;;15.30;99.90;;;;;;5001529;28;20087;-80
2023/10/05 00:03:43;;;;;;;0.47;0.47;;;15.30;99.90;;;;;;5009845;28;20481;-81
2023/10/05 00:06:24;;;;;;;0.10;0.10;;;15.30;99.90;;;;;;5013255;28;20120;-80
2023/10/05 00:08:54;;;;;;;0.10;0.10;;;15.30;99.90;;;;;;5012925;28;20181;-80
2023/10/05 00:11:28;;;;;;;0.30;0.30;;;15.30;99.90;;;;;;5014179;28;20868;-81
2023/10/05 00:13:59;;;;;;;0.17;0.17;;;15.30;99.90;;;;;;5000320;28;20044;-80
2023/10/05 00:16:38;;;;;;;0.47;0.40;;;15.20;99.90;;;;;;5002111;28;20025;-79
2023/10/05 00:19:10;;;;;;;0.40;0.40;;;15.30;99.90;;;;;;5009760;28;20114;-80
2023/10/05 00:21:42;;;;;;;0.20;0.20;;;15.30;99.90;;;;;;5011830;28;20120;-80
2023/10/05 00:24:08;;;;;;;0.13;0.13;;;15.30;99.90;;;;;;5010683;28;20053;-81
2023/10/05 00:26:37;;;;;;;0.20;0.20;;;15.30;99.90;;;;;;5000147;28;20037;-80
2023/10/05 00:31:38;;;;;;;0.17;0.17;;;15.30;99.90;;;;;;5012078;28;20746;-80
2023/10/05 00:34:08;;;;;;;0.20;0.20;;;15.20;99.90;;;;;;4996386;28;20036;-80
2023/10/05 00:36:36;;;;;;;0.10;0.10;;;15.20;99.90;;;;;;5012504;28;20075;-80
2023/10/05 00:39:07;;;;;;;0.20;0.20;;;15.20;99.90;;;;;;5013168;28;20737;-80
2023/10/05 00:41:33;;;;;;;0.10;0.10;;;15.20;99.90;;;;;;5011539;28;20472;-80
2023/10/05 00:44:00;;;;;;;0.10;0.10;;;15.20;99.90;;;;;;5014089;28;20026;-80
2023/10/05 00:46:25;;;;;;;0.10;0.10;;;15.20;99.90;;;;;;5013659;28;20631;-80
2023/10/05 00:49:00;;;;;;;0.38;0.38;;;15.20;99.90;;;;;;5008568;28;20034;-80
2023/10/05 00:51:33;;;;;;;0.20;0.20;;;15.20;99.90;;;;;;5013285;28;20029;-80
2023/10/05 00:54:10;;;;;;;0.60;0.60;;;15.20;99.90;;;;;;5014557;28;20112;-79
2023/10/05 00:56:41;;;;;;;4.45;2.15;;;15.20;99.90;;;;;;5007831;28;20040;-80
2023/10/05 00:59:10;;;;;;;0.15;0.15;;;15.20;99.90;;;;;;4996818;28;20033;-81
2023/10/05 01:01:59;;;;;;;0.20;0.20;;;15.20;99.90;;;;;;5012506;28;20029;-80
2023/10/05 01:04:52;;;;;;;0.32;0.32;;;15.10;99.90;;;;;;5011386;28;20033;-81
2023/10/05 01:07:18;;;;;;;1.15;1.15;;;15.00;99.90;;;;;;5013825;28;20145;-80
2023/10/05 01:12:38;;;;;;;0.20;0.20;;;15.10;99.90;;;;;;5011090;28;19909;-79
2023/10/05 01:15:14;;;;;;;0.20;0.20;;;15.00;99.90;;;;;;4995361;28;20026;-80
2023/10/05 01:17:40;;;;;;;0.10;0.10;;;15.00;99.90;;;;;;4996509;28;20033;-81
2023/10/05 01:20:22;;;;;;;0.30;0.30;;;15.10;99.90;;;;;;5016203;28;20052;-80
2023/10/05 01:22:49;;;;;;;0.20;0.20;;;15.00;99.90;;;;;;4996894;28;20104;-81
2023/10/05 01:25:15;;;;;;;0.50;0.50;;;15.00;99.90;;;;;;5010979;28;20029;-80
2023/10/05 01:27:49;;;;;;;0.20;0.20;;;15.10;99.90;;;;;;5010786;28;20493;-80
2023/10/05 01:30:17;;;;;;;0.20;0.20;;;15.10;99.90;;;;;;4989264;28;20112;-81
2023/10/05 01:32:44;;;;;;;0.22;0.22;;;15.00;99.90;;;;;;4992601;28;20017;-81
2023/10/05 01:35:14;;;;;;;0.13;0.13;;;15.00;99.90;;;;;;5009867;28;20041;-81
2023/10/05 01:37:40;;;;;;;0.10;0.10;;;15.00;99.90;;;;;;5013091;28;20025;-80
2023/10/05 01:40:20;;;;;;;0.20;0.20;;;14.90;99.90;;;;;;4997057;28;20025;-81
2023/10/05 01:42:52;;;;;;;0.17;0.17;;;15.00;99.90;;;;;;5011272;28;20029;-82
2023/10/05 01:45:29;;;;;;;0.30;0.30;;;15.00;99.90;;;;;;5006322;28;20018;-81
2023/10/05 01:47:56;;;;;;;0.10;0.10;;;14.90;99.90;;;;;;4996357;28;20037;-82
2023/10/05 01:50:22;;;;;;;0.15;0.15;;;14.90;99.90;;;;;;5011293;28;20030;-81
2023/10/05 01:53:01;;;;;;;0.20;0.20;;;14.90;99.90;;;;;;4997049;28;20486;-81
2023/10/05 01:55:28;;;;;;;0.20;0.20;;;14.90;99.90;;;;;;5012439;28;20041;-81
2023/10/05 01:57:54;;;;;;;0.10;0.10;;;14.80;99.90;;;;;;5000328;28;20474;-81
2023/10/05 02:00:21;;;;;;;0.20;0.20;;;14.80;99.90;;;;;;4992474;28;20022;-81
2023/10/05 02:02:48;;;;;;;0.10;0.10;;;14.70;99.90;;;;;;4993654;28;20203;-82
2023/10/05 02:05:14;;;;;;;3.60;0.47;;;14.80;99.90;;;;;;4995522;28;20060;-80
2023/10/05 02:07:40;;;;;;;0.20;0.20;;;14.80;99.90;;;;;;4996206;28;20038;-80
2023/10/05 02:10:10;;;;;;;0.15;0.15;;;14.80;99.90;;;;;;5010189;28;20071;-80
2023/10/05 02:12:36;;;;;;;0.20;0.20;;;14.90;99.90;;;;;;5010259;28;20088;-80
2023/10/05 02:15:16;;;;;;;0.25;0.25;;;14.70;99.90;;;;;;5000496;28;20028;-80
2023/10/05 02:17:45;;;;;;;0.30;0.30;;;14.80;99.90;;;;;;5008568;28;20029;-81
2023/10/05 02:20:26;;;;;;;0.20;0.20;;;14.80;99.90;;;;;;5013105;28;20025;-81
2023/10/05 02:22:52;;;;;;;0.20;0.20;;;14.80;99.90;;;;;;5010619;28;20117;-81
2023/10/05 02:25:22;;;;;;;0.20;0.20;;;14.80;99.90;;;;;;4997118;28;20501;-81
2023/10/05 02:27:48;;;;;;;0.20;0.20;;;14.60;99.90;;;;;;5011545;28;20075;-82
2023/10/05 02:30:14;;;;;;;0.20;0.20;;;14.70;99.90;;;;;;4993121;28;20486;-81
2023/10/05 02:32:40;;;;;;;0.20;0.20;;;14.60;99.90;;;;;;5010875;28;20018;-81
2023/10/05 02:35:24;;;;;;;0.30;0.30;;;14.50;99.90;;;;;;5000331;28;20772;-81
2023/10/05 02:37:52;;;;;;;0.10;0.10;;;14.60;99.90;;;;;;5012518;28;20104;-80
2023/10/05 02:40:28;;;;;;;0.55;0.30;;;14.70;99.90;;;;;;5011821;28;20121;-80
2023/10/05 02:42:54;;;;;;;0.20;0.20;;;14.70;99.90;;;;;;5010415;28;20474;-81
2023/10/05 02:45:23;;;;;;;0.95;0.95;;;14.70;99.90;;;;;;5012829;28;20406;-79
2023/10/05 02:47:49;;;;;;;0.10;0.10;;;14.60;99.90;;;;;;5010812;28;20065;-80
2023/10/05 02:50:14;;;;;;;0.10;0.10;;;14.70;99.90;;;;;;5009118;28;20060;-81
2023/10/05 02:52:40;;;;;;;0.22;0.22;;;14.70;99.90;;;;;;5034201;28;20041;-81
2023/10/05 02:55:07;;;;;;;0.10;0.10;;;14.70;99.90;;;;;;5021960;28;20040;-81
2023/10/05 02:57:33;;;;;;;0.10;0.10;;;14.60;99.90;;;;;;5026392;28;20037;-81
2023/10/05 02:59:59;;;;;;;0.10;0.10;;;14.60;99.90;;;;;;5017127;28;20472;-83
2023/10/05 03:02:25;;;;;;;0.20;0.20;;;14.60;99.90;;;;;;5014279;28;20022;-80
2023/10/05 03:04:58;;;;;;;0.20;0.20;;;14.70;99.90;;;;;;4996807;28;20022;-80
2023/10/05 03:07:27;;;;;;;0.10;0.10;;;14.70;99.90;;;;;;5019083;28;20034;-80
2023/10/05 03:09:58;;;;;;;0.10;0.10;;;14.70;99.90;;;;;;5002646;28;20029;-81
2023/10/05 03:12:23;;;;;;;0.10;0.10;;;14.60;99.90;;;;;;5017749;28;20021;-82
2023/10/05 03:14:54;;;;;;;0.40;0.40;;;14.60;99.90;;;;;;5005233;28;20040;-82
2023/10/05 03:17:26;;;;;;;1.55;0.38;;;14.70;99.90;;;;;;5016232;28;20041;-82
2023/10/05 03:19:51;;;;;;;0.20;0.20;;;14.70;99.90;;;;;;5013973;28;20045;-82
2023/10/05 03:22:17;;;;;;;0.22;0.22;;;14.60;99.90;;;;;;5018275;28;20397;-81
2023/10/05 03:24:47;;;;;;;0.10;0.10;;;14.60;99.90;;;;;;4999389;28;20018;-82
2023/10/05 03:27:18;;;;;;;0.10;0.10;;;14.50;99.90;;;;;;5005791;28;20526;-81
2023/10/05 03:29:46;;;;;;;0.20;0.20;;;14.40;99.90;;;;;;5016882;28;20026;-82
2023/10/05 03:34:38;;;;;;;0.40;0.40;;;14.50;99.90;;;;;;5018901;28;20523;-81
2023/10/05 03:37:08;;;;;;;0.10;0.10;;;14.40;99.90;;;;;;5020229;28;20105;-82
2023/10/05 03:39:39;;;;;;;0.20;0.20;;;14.50;99.90;;;;;;5017641;28;20498;-81
2023/10/05 03:42:05;;;;;;;0.10;0.10;;;14.50;99.90;;;;;;5016890;28;20043;-82
2023/10/05 03:44:31;;;;;;;0.20;0.20;;;14.40;99.90;;;;;;5017294;28;20442;-82
2023/10/05 03:46:57;;;;;;;0.20;0.20;;;14.40;99.90;;;;;;5013757;28;20042;-82
2023/10/05 03:49:26;;;;;;;0.43;0.43;;;14.40;99.90;;;;;;5005255;28;20049;-81
2023/10/05 03:51:51;;;;;;;0.20;0.20;;;14.40;99.90;;;;;;5016414;28;20030;-82
2023/10/05 03:54:24;;;;;;;0.10;0.10;;;14.50;99.90;;;;;;5013580;28;20176;-81
2023/10/05 03:56:50;;;;;;;6.13;0.32;;;14.40;99.90;;;;;;4999386;28;20029;-81
2023/10/05 03:59:19;;;;;;;0.20;0.20;;;14.40;99.90;;;;;;5016570;28;20486;-82
2023/10/05 04:01:51;;;;;;;0.20;0.20;;;14.40;99.90;;;;;;5016007;28;20022;-81
2023/10/05 04:04:21;;;;;;;0.20;0.20;;;14.40;99.90;;;;;;4999569;28;20085;-81
2023/10/05 04:06:51;;;;;;;0.10;0.10;;;14.50;99.90;;;;;;5015639;28;20045;-81
2023/10/05 04:09:19;;;;;;;0.10;0.10;;;14.40;99.90;;;;;;5016544;28;20025;-80
2023/10/05 04:11:45;;;;;;;0.20;0.20;;;14.40;99.90;;;;;;5014608;28;20042;-81
2023/10/05 04:14:14;;;;;;;0.30;0.30;;;14.40;99.90;;;;;;5014618;28;20382;-82
2023/10/05 04:16:42;;;;;;;0.20;0.20;;;14.40;99.90;;;;;;5004451;28;20029;-82
2023/10/05 04:19:11;;;;;;;0.30;0.30;;;14.40;99.90;;;;;;5013581;28;20290;-81
2023/10/05 04:21:37;;;;;;;0.88;0.43;;;14.50;99.90;;;;;;4998429;28;20029;-81
2023/10/05 04:24:03;;;;;;;0.10;0.10;;;14.40;99.90;;;;;;5006524;28;20033;-81
2023/10/05 04:26:39;;;;;;;0.20;0.20;;;14.40;99.90;;;;;;4998737;28;20034;-81
2023/10/05 04:29:08;;;;;;;0.28;0.28;;;14.40;99.90;;;;;;4999934;28;20084;-82
2023/10/05 04:31:36;;;;;;;0.20;0.20;;;14.40;99.90;;;;;;5003704;28;20116;-81
2023/10/05 04:34:05;;;;;;;0.20;0.20;;;14.40;99.90;;;;;;5005048;28;20030;-82
2023/10/05 04:36:31;;;;;;;0.30;0.30;;;14.40;99.90;;;;;;5019006;28;20025;-80
2023/10/05 04:38:56;;;;;;;0.50;0.50;;;14.30;99.90;;;;;;5005678;28;20041;-81
2023/10/05 04:41:31;;;;;;;0.63;0.63;;;14.40;99.90;;;;;;5013627;28;20025;-81
2023/10/05 04:43:57;;;;;;;4.18;0.40;;;14.50;99.90;;;;;;4999087;28;20018;-82
2023/10/05 04:46:28;;;;;;;0.10;0.10;;;14.50;99.90;;;;;;5011199;28;20052;-81
2023/10/05 04:49:07;;;;;;;0.10;0.10;;;14.40;99.90;;;;;;5010868;28;20029;-82
2023/10/05 04:51:40;;;;;;;0.10;0.10;;;14.40;99.90;;;;;;4994078;28;20033;-82
2023/10/05 04:54:07;;;;;;;;;;;14.30;99.90;;;;;;5011820;28;20053;-81
2023/10/05 05:06:59;;;;;;;0.20;0.20;;;14.40;99.90;;;;;;5012979;28;20159;-81
2023/10/05 05:09:34;;;;;;;0.20;0.20;;;14.30;99.90;;;;;;5015226;28;20028;-82
2023/10/05 05:12:16;;;;;;;0.17;0.17;;;14.30;99.90;;;;;;5001002;28;20040;-81
2023/10/05 05:14:44;;;;;;;0.10;0.10;;;14.10;99.90;;;;;;5012119;28;20095;-82
2023/10/05 05:17:14;;;;;;;0.20;0.20;;;14.20;99.90;;;;;;5011732;28;20025;-82
2023/10/05 05:19:39;;;;;;;0.25;0.25;;;14.30;99.90;;;;;;5010831;28;20021;-82
2023/10/05 05:22:06;;;;;;;1.80;0.32;;;14.30;99.90;;;;;;4993431;28;20022;-81
2023/10/05 05:24:35;;;;;;;0.10;0.10;;;14.30;99.90;;;;;;5009426;28;20018;-82
2023/10/05 05:27:11;;;;;;;0.20;0.20;;;14.30;99.90;;;;;;4994849;28;20029;-83
2023/10/05 05:29:38;;;;;;;0.20;0.20;;;14.40;99.90;;;;;;5014105;28;20029;-82
2023/10/05 05:32:10;;;;;;;0.10;0.10;;;14.40;99.90;;;;;;4993821;28;20769;-82
2023/10/05 05:34:41;;;;;;;0.17;0.17;;;14.40;99.90;;;;;;4995990;28;20058;-81
2023/10/05 05:40:10;;;;;;;0.15;0.15;;;14.40;99.90;;;;;;4995405;28;20034;-82
2023/10/05 05:42:36;;;;;;;0.20;0.20;;;14.40;99.90;;;;;;5005515;28;20116;-82
2023/10/05 05:45:09;;;;;;;0.20;0.20;;;14.40;99.90;;;;;;4996073;28;20124;-81
2023/10/05 05:47:37;;;;;;;;;;;14.40;99.90;;;;;;4995213;28;20052;-82
2023/10/05 05:50:03;;;;;;;0.22;0.22;;;14.40;99.90;;;;;;5008811;28;19909;-82
2023/10/05 05:52:29;;;;;;;0.20;0.20;;;14.40;99.90;;;;;;4997251;28;20018;-81
2023/10/05 05:54:54;;;;;;;0.20;0.20;;;14.40;99.90;;;;;;5015259;28;20034;-81
2023/10/05 05:57:20;;;;;;;0.20;0.20;;;14.50;99.90;;;;;;5024912;28;20021;-82
2023/10/05 05:59:46;;;;;;;0.20;0.20;;;14.50;99.90;;;;;;5014706;28;20045;-82
2023/10/05 06:02:14;;;;;;;0.10;0.10;;;14.50;99.90;;;;;;4996449;28;20045;-82
2023/10/05 06:04:41;;;;;;;0.20;0.20;;;14.50;99.90;;;;;;5012571;28;20034;-82
2023/10/05 06:07:13;;;;;;;1.00;0.60;;;14.40;99.90;;;;;;5009036;28;20033;-82
2023/10/05 06:09:45;;;;;;;0.20;0.20;;;14.40;99.90;;;;;;4998299;28;20078;-81
2023/10/05 06:12:13;;;;;;;0.20;0.20;;;14.40;99.90;;;;;;4993673;28;20028;-82
2023/10/05 06:14:40;;;;;;;0.20;0.20;;;14.50;99.90;;;;;;5012324;28;20025;-80
2023/10/05 06:17:07;;;;;;;0.20;0.20;;;14.40;99.90;;;;;;4999466;28;20029;-80
2023/10/05 06:19:33;;;;;;;0.20;0.20;;;14.40;99.90;;;;;;5009962;28;20036;-81
2023/10/05 06:21:58;;;;;;;0.65;0.60;;;14.40;99.90;;;;;;5000224;28;20513;-80
2023/10/05 06:24:24;;;;;;;0.30;0.30;;;14.40;99.90;;;;;;5008435;28;20030;-81
2023/10/05 06:26:50;;;;;;;0.40;0.40;;;14.40;99.90;;;;;;5009845;28;20033;-80
2023/10/05 06:29:16;;;;;;;0.38;0.38;;;14.50;99.90;;;;;;5007937;28;20061;-79
2023/10/05 06:31:43;;;;;;;0.20;0.20;;;14.50;99.90;;;;;;5013910;28;20045;-81
2023/10/05 06:34:09;;;;;;;0.65;0.57;;;14.40;99.90;;;;;;5015405;28;20456;-81
2023/10/05 06:36:39;;;;;;;0.47;0.47;;;14.40;99.90;;;;;;5013768;28;20087;-80
2023/10/05 06:39:14;;;;;;;0.22;0.22;;;14.30;99.90;;;;;;4998860;28;20417;-81
2023/10/05 06:41:41;;;;;;;0.30;0.30;;;14.50;99.90;;;;;;5010455;28;20064;-80
2023/10/05 06:44:10;;;;;;;0.20;0.20;;;14.50;99.90;;;;;;5004470;28;20437;-81
2023/10/05 06:46:39;;;;;;;0.20;0.20;;;14.50;99.90;;;;;;5018013;28;20084;-81
2023/10/05 06:49:09;;;;;;;0.20;0.20;;;14.60;99.90;;;;;;5003474;28;20018;-81
2023/10/05 06:51:35;;;;;;;0.20;0.20;;;14.60;99.90;;;;;;5013144;28;20064;-81
2023/10/05 06:54:00;;;;;;;0.10;0.10;;;14.50;99.90;;;;;;5016940;28;20346;-81
2023/10/05 06:56:27;;;;;;;0.20;0.20;;;14.60;99.90;;;;;;5003757;28;20037;-81
2023/10/05 06:58:55;;;;;;;0.13;0.13;;;14.60;99.90;;;;;;5012823;28;20022;-80
2023/10/05 07:01:21;;;;;;;0.30;0.30;;;14.70;99.90;;;;;;4995144;28;20481;-80
2023/10/05 07:03:52;;;;;;;0.17;0.17;;;14.70;99.90;;;;;;5013358;28;20026;-81
2023/10/05 07:06:19;;;;;;;0.35;0.35;;;14.80;99.90;;;;;;5006849;28;20037;-81
2023/10/05 07:08:46;;;;;;;0.20;0.20;;;14.90;99.90;;;;;;5000197;28;20030;-81
2023/10/05 07:11:14;;;;;;;0.20;0.20;;;14.90;99.90;;;;;;5010204;28;20034;-80
2023/10/05 07:13:39;;;;;;;0.35;0.35;;;14.80;99.90;;;;;;5011192;28;20151;-81
2023/10/05 07:16:05;;;;;;;0.20;0.20;;;14.90;99.90;;;;;;5005572;28;20193;-81
2023/10/05 07:18:31;;;;;;;0.20;0.20;;;14.90;99.90;;;;;;5014025;28;20068;-83
2023/10/05 07:20:57;;;;;;;0.52;0.52;;;15.00;99.90;;;;;;5021033;28;20045;-84
2023/10/05 07:23:23;;;;;;;0.40;0.40;;;15.00;99.90;;;;;;5013016;28;20523;-82
2023/10/05 07:25:49;;;;;;;0.20;0.20;;;15.00;99.90;;;;;;5005856;28;20037;-84
2023/10/05 07:28:15;;;;;;;0.20;0.20;;;15.00;99.90;;;;;;5020498;28;20036;-83
2023/10/05 07:30:43;;;;;;;0.30;0.30;;;15.10;99.90;;;;;;5030555;28;20071;-83
2023/10/05 07:33:11;;;;;;;0.40;0.40;;;15.10;99.90;;;;;;5019379;28;20026;-84
2023/10/05 07:35:38;;;;;;;0.40;0.40;;;15.10;99.90;;;;;;5012946;28;20113;-82
2023/10/05 07:38:05;;;;;;;0.20;0.20;;;15.30;99.90;;;;;;5015284;28;20087;-82
2023/10/05 07:40:30;;;;;;;1.98;0.30;;;15.30;99.90;;;;;;5022120;28;20457;-82
2023/10/05 07:42:56;;;;;;;0.10;0.10;;;15.30;99.90;;;;;;5019533;28;20030;-81
2023/10/05 07:45:22;;;;;;;0.30;0.30;;;15.40;99.90;;;;;;5017217;28;20085;-81
2023/10/05 07:47:48;;;;;;;0.22;0.22;;;15.30;99.90;;;;;;4998834;28;20091;-81
2023/10/05 07:50:14;;;;;;;0.35;0.35;;;15.20;99.90;;;;;;5000428;28;20029;-81
2023/10/05 07:52:43;;;;;;;0.40;0.40;;;15.30;99.90;;;;;;5003451;28;20057;-82
2023/10/05 07:55:10;;;;;;;0.40;0.40;;;15.30;99.90;;;;;;5010706;28;20490;-80
2023/10/05 07:57:36;;;;;;;0.57;0.57;;;15.30;99.90;;;;;;4999459;28;20397;-81
2023/10/05 08:00:03;;;;;;;0.32;0.20;;;15.40;99.90;;;;;;5005697;28;20021;-83
2023/10/05 08:02:29;;;;;;;0.30;0.30;;;15.50;99.90;;;;;;4997557;28;20044;-83
2023/10/05 08:04:55;;;;;;;0.22;0.22;;;15.50;99.90;;;;;;4998462;28;20034;-82
2023/10/05 08:07:21;;;;;;;0.30;0.30;;;15.50;99.90;;;;;;5004517;28;20090;-82
2023/10/05 08:09:49;;;;;;;0.20;0.20;;;15.60;99.90;;;;;;5014665;28;20072;-81
2023/10/05 08:12:15;;;;;;;0.35;0.35;;;15.70;99.90;;;;;;4995938;28;20072;-81
2023/10/05 08:14:41;;;;;;;0.50;0.50;;;15.80;99.90;;;;;;5014886;28;20648;-82
2023/10/05 08:17:07;;;;;;;0.73;0.73;;;15.80;99.90;;;;;;4999901;28;20115;-82
2023/10/05 08:19:32;;;;;;;0.43;0.43;;;15.90;99.90;;;;;;5014959;28;20470;-81
2023/10/05 08:21:58;;;;;;;0.50;0.50;;;16.00;99.90;;;;;;5008400;28;20434;-82
2023/10/05 08:24:24;;;;;;;0.20;0.20;;;16.10;99.90;;;;;;5021843;28;20030;-81
2023/10/05 08:26:56;;;;;;;0.30;0.30;;;16.10;99.90;;;;;;5014130;28;20030;-82
2023/10/05 08:29:22;;;;;;;0.30;0.30;;;16.10;99.90;;;;;;5016479;28;20378;-83
2023/10/05 08:31:54;;;;;;;1.45;0.80;;;16.10;99.90;;;;;;4996243;28;20057;-82
2023/10/05 08:34:23;;;;;;;0.20;0.20;;;16.10;99.90;;;;;;5014875;28;20474;-82
2023/10/05 08:36:55;;;;;;;0.20;0.20;;;16.30;99.90;;;;;;5003214;28;20033;-82
2023/10/05 08:39:24;;;;;;;0.20;0.20;;;16.40;99.90;;;;;;5012028;28;20092;-83
2023/10/05 08:41:57;;;;;;;0.20;0.20;;;16.30;99.90;;;;;;5010824;28;20026;-82
2023/10/05 08:44:26;;;;;;;0.30;0.30;;;16.40;99.90;;;;;;5010698;28;20682;-82
2023/10/05 08:46:55;;;;;;;0.28;0.28;;;16.40;99.90;;;;;;4997474;28;20041;-82
2023/10/05 08:49:26;;;;;;;0.75;0.75;;;16.40;99.90;;;;;;4994312;28;20091;-82
2023/10/05 08:51:52;;;;;;;0.20;0.20;;;16.50;99.90;;;;;;4991892;28;20030;-82
2023/10/05 08:54:21;;;;;;;0.38;0.38;;;16.60;99.90;;;;;;5001290;28;20099;-82
2023/10/05 08:56:48;;;;;;;0.20;0.20;;;16.80;99.90;;;;;;4996797;28;20033;-83
2023/10/05 08:59:14;;;;;;;0.25;0.25;;;16.70;99.90;;;;;;5013926;28;20592;-82
2023/10/05 09:01:50;;;;;;;0.30;0.30;;;16.90;99.90;;;;;;5013987;28;20112;-82
2023/10/05 09:06:47;;;;;;;0.20;0.20;;;17.30;99.90;;;;;;5015359;28;20056;-82
2023/10/05 09:09:27;;;;;;;0.85;0.65;;;17.40;99.90;;;;;;5016586;28;20022;-82
2023/10/05 09:11:53;;;;;;;0.43;0.43;;;17.60;99.90;;;;;;5004800;28;20049;-82
2023/10/05 09:14:38;;;;;;;0.65;0.65;;;17.70;99.90;;;;;;5017524;28;20029;-82
2023/10/05 09:17:07;;;;;;;0.40;0.40;;;17.70;99.90;;;;;;5014546;28;20045;-83
2023/10/05 09:19:33;;;;;;;0.30;0.30;;;17.70;99.90;;;;;;4995137;28;20030;-83
2023/10/05 09:24:32;;;;;;;0.40;0.40;;;17.70;99.90;;;;;;5012630;28;20034;-82
2023/10/05 09:27:26;;;;;;;0.40;0.40;;;17.70;99.90;;;;;;4997563;28;20913;-82
2023/10/05 09:29:48;;;;;;;1.65;0.70;;;17.60;99.90;;;;;;5016815;28;20050;-83
2023/10/05 09:32:22;;;;;;;0.40;0.40;;;17.60;99.90;;;;;;5000761;28;20044;-83
2023/10/05 09:34:50;;;;;;;0.50;0.50;;;17.70;99.90;;;;;;4996335;28;20501;-82
2023/10/05 09:37:23;;;;;;;0.55;0.55;;;17.60;99.90;;;;;;5015807;28;20099;-83
2023/10/05 09:39:49;;;;;;;0.50;0.50;;;17.60;99.90;;;;;;5015397;28;20088;-82
2023/10/05 09:42:16;;;;;;;0.32;0.32;;;17.70;99.90;;;;;;5020921;28;20030;-83
2023/10/05 09:44:51;;;;;;;3.45;0.88;;;17.80;99.90;;;;;;5015586;28;20056;-82
2023/10/05 09:47:25;;;;;;;0.47;0.47;;;17.80;99.90;;;;;;5009890;28;20358;-82
2023/10/05 09:49:55;;;;;;;0.20;0.20;;;17.70;99.90;;;;;;5020622;28;20120;-82
2023/10/05 09:52:24;;;;;;;0.50;0.50;;;17.70;99.90;;;;;;5009566;28;20074;-83
2023/10/05 09:54:50;;;;;;;0.30;0.30;;;17.80;99.90;;;;;;5015156;28;20049;-83
2023/10/05 09:57:23;;;;;;;0.73;0.73;;;17.70;99.90;;;;;;5000430;28;20029;-82
2023/10/05 09:59:57;;;;;;;5.07;0.47;;;17.70;99.90;;;;;;5002573;28;20030;-82
2023/10/05 10:02:32;;;;;;;0.30;0.30;;;17.70;99.90;;;;;;5017625;28;20418;-82
2023/10/05 10:05:09;;;;;;;0.20;0.20;;;17.80;99.90;;;;;;5000779;28;20076;-82
2023/10/05 10:07:36;;;;;;;0.50;0.50;;;17.80;99.90;;;;;;5018687;28;20048;-82
2023/10/05 10:10:04;;;;;;;0.73;0.73;;;17.90;99.90;;;;;;5001500;28;20034;-82
2023/10/05 10:12:33;;;;;;;0.77;0.77;;;17.90;99.90;;;;;;5021650;28;20026;-81
2023/10/05 10:14:59;;;;;;;0.40;0.40;;;17.70;99.90;;;;;;5017024;28;20033;-82
2023/10/05 10:17:31;;;;;;;0.30;0.30;;;17.90;99.90;;;;;;5017594;28;20024;-82
2023/10/05 10:20:24;;;;;;;1.35;0.65;;;17.90;99.90;;;;;;5021526;28;20465;-82
2023/10/05 10:22:55;;;;;;;0.40;0.40;;;18.10;99.90;;;;;;5014688;28;20018;-82
2023/10/05 10:25:38;;;;;;;0.40;0.40;;;18.30;99.90;;;;;;5004105;28;20037;-82
2023/10/05 10:28:56;;;;;;;0.30;0.30;;;18.50;99.90;;;;;;5007228;28;20074;-81
2023/10/05 10:31:29;;;;;;;0.60;0.60;;;18.30;99.90;;;;;;5018804;28;20128;-80
2023/10/05 10:34:05;;;;;;;0.50;0.50;;;18.30;99.90;;;;;;5017900;28;20018;-81
2023/10/05 10:36:57;;;;;;;0.20;0.20;;;18.30;99.90;;;;;;5020342;28;20056;-82
2023/10/05 10:39:33;;;;;;;0.65;0.65;;;18.50;99.90;;;;;;5021793;28;20045;-82
2023/10/05 10:42:09;;;;;;;0.40;0.40;;;18.50;99.90;;;;;;5016541;28;20482;-81
2023/10/05 10:47:19;;;;;;;0.40;0.40;;;18.50;99.90;;;;;;5019336;28;20041;-81
2023/10/05 10:50:11;;;;;;;0.20;0.20;;;18.50;99.90;;;;;;5016921;28;20149;-82
2023/10/05 10:52:38;;;;;;;0.30;0.30;;;18.70;99.90;;;;;;5003375;28;20128;-82
2023/10/05 10:55:07;;;;;;;0.50;0.50;;;18.90;99.90;;;;;;5013111;28;20029;-81
2023/10/05 10:57:33;;;;;;;0.38;0.38;;;19.10;99.90;;;;;;5014126;28;20064;-82
2023/10/05 11:02:44;;;;;;;0.30;0.30;;;19.10;99.90;;;;;;5015385;28;20484;-81
2023/10/05 11:05:15;;;;;;;0.30;0.30;;;19.10;99.90;;;;;;5000494;28;20026;-81
2023/10/05 11:07:44;;;;;;;0.35;0.35;;;18.80;99.90;;;;;;5001333;28;20048;-82
2023/10/05 11:10:19;;;;;;;0.40;0.40;;;18.70;99.90;;;;;;5013092;28;20044;-82
2023/10/05 11:12:57;;;;;;;0.38;0.38;;;18.70;99.90;;;;;;4998814;28;20025;-82
2023/10/05 11:15:28;;;;;;;0.60;0.60;;;18.90;99.90;;;;;;4997049;28;20508;-82
2023/10/05 11:17:58;;;;;;;0.43;0.43;;;19.20;99.90;;;;;;5001802;28;20041;-82
2023/10/05 11:20:33;;;;;;;0.95;0.95;;;19.40;99.90;;;;;;5005006;28;20119;-82
2023/10/05 11:23:03;;;;;;;0.30;0.30;;;19.50;99.90;;;;;;5020745;28;20025;-82
2023/10/05 11:25:32;;;;;;;1.52;1.42;;;19.40;99.90;;;;;;5014554;28;20075;-83
2023/10/05 11:27:59;;;;;;;0.77;0.77;;;19.60;99.90;;;;;;5014594;28;20045;-82
2023/10/05 11:30:41;;;;;;;0.50;0.50;;;19.90;99.90;;;;;;4996299;28;20135;-82
2023/10/05 11:33:15;;;;;;;0.50;0.50;;;20.20;99.90;;;;;;4998868;28;20359;-81
2023/10/05 11:35:55;;;;;;;1.23;1.23;;;20.30;99.90;;;;;;4995536;28;20049;-87
2023/10/05 11:38:26;;;;;;;0.35;0.35;;;20.40;99.90;;;;;;5016954;28;20405;-83
2023/10/05 11:40:56;;;;;;;0.73;0.68;;;20.30;99.90;;;;;;5015234;28;20014;-82
2023/10/05 11:43:23;;;;;;;0.47;0.47;;;20.00;99.90;;;;;;5011105;28;20041;-81
2023/10/05 11:48:56;;;;;;;0.80;0.60;;;20.30;99.90;;;;;;5014657;28;20069;-81
2023/10/05 11:51:45;;;;;;;0.60;0.60;;;20.30;99.90;;;;;;5013613;28;20030;-82
2023/10/05 11:54:12;;;;;;;0.40;0.40;;;19.90;99.90;;;;;;5018771;28;20038;-83
2023/10/05 11:56:41;;;;;;;0.35;0.35;;;19.80;99.90;;;;;;5012130;28;20026;-82
2023/10/05 11:59:09;;;;;;;0.35;0.35;;;19.80;99.90;;;;;;5011237;28;20441;-83
2023/10/05 12:01:40;;;;;;;0.80;0.80;;;19.80;99.90;;;;;;5010455;28;20437;-83
2023/10/05 12:04:08;;;;;;;0.98;0.90;;;19.90;99.90;;;;;;5008895;28;20029;-83
2023/10/05 12:06:37;;;;;;;0.40;0.40;;;19.80;99.90;;;;;;5017667;28;20037;-82
2023/10/05 12:09:09;;;;;;;0.38;0.38;;;19.60;99.90;;;;;;5014741;28;20788;-82
2023/10/05 12:11:41;;;;;;;0.50;0.50;;;19.70;99.90;;;;;;4991746;28;20417;-83
2023/10/05 12:14:09;;;;;;;0.50;0.50;;;19.60;99.90;;;;;;5000198;28;20328;-83
2023/10/05 12:16:38;;;;;;;0.32;0.32;;;19.60;99.90;;;;;;5011424;28;20816;-83
2023/10/05 12:19:21;;;;;;;1.88;1.45;;;19.60;99.90;;;;;;4994570;28;20037;-83
2023/10/05 12:21:47;;;;;;;0.95;0.95;;;19.70;99.90;;;;;;4998976;28;20112;-83
2023/10/05 12:24:13;;;;;;;0.47;0.47;;;19.60;99.90;;;;;;5015823;28;20036;-82
2023/10/05 12:26:42;;;;;;;0.60;0.60;;;19.60;99.90;;;;;;5023078;28;20125;-83
2023/10/05 12:29:12;;;;;;;0.38;0.38;;;19.70;99.90;;;;;;5018550;28;20025;-81
2023/10/05 12:31:39;;;;;;;0.30;0.30;;;19.70;99.90;;;;;;5000797;28;20048;-80
2023/10/05 12:34:14;;;;;;;0.30;0.30;;;19.70;99.90;;;;;;4994101;28;20079;-81
2023/10/05 12:36:48;;;;;;;0.50;0.50;;;19.60;99.90;;;;;;5011142;28;20136;-80
2023/10/05 12:39:14;;;;;;;0.47;0.47;;;19.40;99.90;;;;;;5012825;28;20072;-80
2023/10/05 12:41:42;;;;;;;4.90;2.25;;;19.30;99.90;;;;;;5010247;28;20025;-80
2023/10/05 12:44:09;;;;;;;1.77;1.17;;;19.40;99.90;;;;;;4996990;28;20057;-81
2023/10/05 12:46:41;;;;;;;0.40;0.40;;;19.50;99.90;;;;;;4991189;28;20060;-80
2023/10/05 12:49:10;;;;;;;0.82;0.82;;;19.40;99.90;;;;;;5012306;28;20100;-80
2023/10/05 12:51:39;;;;;;;0.30;0.30;;;19.40;99.90;;;;;;4998345;28;20033;-81
2023/10/05 12:54:15;;;;;;;0.30;0.30;;;19.40;99.90;;;;;;5011376;28;20450;-80
2023/10/05 12:56:41;;;;;;;0.55;0.55;;;19.50;99.90;;;;;;5009646;28;20372;-80
2023/10/05 12:59:07;;;;;;;0.73;0.70;;;19.50;99.90;;;;;;5010354;28;20029;-81
2023/10/05 13:01:41;;;;;;;0.60;0.60;;;19.60;99.90;;;;;;4999112;28;20049;-80
2023/10/05 13:04:08;;;;;;;0.40;0.40;;;19.50;99.90;;;;;;5002553;28;20038;-81
2023/10/05 13:06:40;;;;;;;0.20;0.20;;;19.50;99.90;;;;;;4997520;28;20367;-83
2023/10/05 13:09:12;;;;;;;0.40;0.40;;;19.30;99.90;;;;;;5013467;28;20164;-83
2023/10/05 13:11:47;;;;;;;0.30;0.30;;;19.40;99.90;;;;;;5002645;28;20033;-82
2023/10/05 13:14:14;;;;;;;0.30;0.30;;;19.40;99.90;;;;;;5011343;28;20334;-82
2023/10/05 13:16:41;;;;;;;0.40;0.40;;;19.40;99.90;;;;;;5002438;28;20053;-82
2023/10/05 13:19:09;;;;;;;0.30;0.30;;;19.70;99.90;;;;;;5013964;28;20042;-82
2023/10/05 13:21:39;;;;;;;0.30;0.30;;;19.60;99.90;;;;;;5015732;28;20025;-84
2023/10/05 13:24:06;;;;;;;0.40;0.40;;;19.60;99.90;;;;;;5013763;28;20032;-81
2023/10/05 13:26:32;;;;;;;0.47;0.45;;;19.60;99.90;;;;;;5018625;28;20087;-81
2023/10/05 13:29:03;;;;;;;1.02;1.02;;;19.60;99.90;;;;;;4998701;28;20030;-81
2023/10/05 13:31:32;;;;;;;0.50;0.50;;;19.80;99.90;;;;;;4998236;28;20104;-81
2023/10/05 13:33:59;;;;;;;0.32;0.32;;;20.00;99.90;;;;;;5006420;28;20543;-82
2023/10/05 13:36:26;;;;;;;0.40;0.40;;;20.10;99.90;;;;;;4998887;28;20025;-81